KARA

Acadiana Regional Airport

New Iberia, Louisiana, USA
METAR KARA 170353Z AUTO 05008KT 10SM OVC002 19/18 A3010 RMK AO2 SLP193 T01940183
Observed Flight Rules
Oct-17 @ 03:53 UTC (an hour ago) Instrument Flight Rules
Wind Visibility Clouds
50° at 8 knots 10 miles
  • Overcast at 200' AGL
Temperatures Readings
Current 19°C / 66°F
Dewpoint 18°C / 64°F
Humidity 94%
Altimeter 30.1" Hg
Pressure 1019.3 hPa
Elevation 18
METAR KARA 170353Z AUTO 05008KT 10SM OVC002 19/18 A3010 RMK AO2 SLP193 T01940183
Observed Flight Rules
Oct-17 @ 03:53 UTC
(an hour ago)
LIFR
Wind Visibility
50° at 8 knots 10 miles
Clouds
  • Overcast at 200' AGL
Temperature Dewpoint
19°C / 66°F 18°C / 64°F
Humidity Altimeter Pressure
94% 30.1" Hg 1019.3 hPa